createdAt,value
2019-02-17T00:00:48.955Z,61.07
2019-02-17T00:03:19.778Z,58.90
2019-02-17T00:05:50.447Z,57.33
2019-02-17T00:08:21.128Z,60.70
2019-02-17T00:10:51.825Z,60.50
2019-02-17T00:13:22.730Z,61.20
2019-02-17T00:15:53.181Z,63.80
2019-02-17T00:18:24.234Z,60.30
2019-02-17T00:20:55.166Z,65.47
2019-02-17T00:23:26.038Z,64.70
2019-02-17T00:25:56.828Z,63.40
2019-02-17T00:28:27.413Z,60.83
2019-02-17T00:30:58.618Z,57.53
2019-02-17T00:33:29.342Z,63.37
2019-02-17T00:36:00.398Z,63.70
2019-02-17T00:38:30.993Z,58.67
2019-02-17T00:41:01.838Z,60.17
2019-02-17T00:43:32.832Z,61.97
2019-02-17T00:46:03.664Z,62.10
2019-02-17T00:48:34.682Z,67.00
2019-02-17T00:51:05.577Z,70.10
2019-02-17T00:53:36.568Z,61.80
2019-02-17T00:56:07.705Z,67.17
2019-02-17T00:58:38.552Z,69.00
2019-02-17T01:01:09.797Z,70.10
2019-02-17T01:03:40.939Z,64.90
2019-02-17T01:06:11.642Z,65.43
2019-02-17T01:08:42.644Z,62.37
2019-02-17T01:11:13.355Z,68.23
2019-02-17T01:13:44.056Z,63.00
2019-02-17T01:16:14.666Z,65.97
2019-02-17T01:18:45.347Z,63.27
2019-02-17T01:21:16.053Z,64.03
2019-02-17T01:23:46.633Z,64.40
2019-02-17T01:26:17.736Z,62.33
2019-02-17T01:28:48.835Z,65.60
2019-02-17T01:31:19.574Z,69.47
2019-02-17T01:33:50.268Z,65.10
2019-02-17T01:36:21.061Z,63.57
2019-02-17T01:38:52.226Z,68.93
2019-02-17T01:41:23.069Z,67.80
2019-02-17T01:43:53.879Z,66.77
2019-02-17T01:46:24.440Z,71.00
2019-02-17T01:48:55.264Z,68.13
2019-02-17T01:51:25.923Z,73.87
2019-02-17T01:53:56.398Z,69.17
2019-02-17T01:56:26.963Z,76.70
2019-02-17T01:58:57.494Z,68.23
2019-02-17T02:01:28.065Z,68.33
2019-02-17T02:03:58.645Z,68.17
2019-02-17T02:06:29.233Z,67.60
2019-02-17T02:09:00.202Z,68.97
2019-02-17T02:11:30.996Z,67.97
2019-02-17T02:14:01.596Z,70.20
2019-02-17T02:16:32.614Z,68.33
2019-02-17T02:19:03.252Z,69.87
2019-02-17T02:21:34.280Z,72.87
2019-02-17T02:24:04.912Z,71.20
2019-02-17T02:26:35.991Z,66.37
2019-02-17T02:29:06.529Z,65.57
2019-02-17T02:31:37.079Z,62.20
2019-02-17T02:34:07.665Z,68.80
2019-02-17T02:36:38.237Z,68.57
2019-02-17T02:39:08.725Z,62.63
2019-02-17T02:41:39.740Z,62.70
2019-02-17T02:44:10.607Z,65.60
2019-02-17T02:46:41.105Z,65.03
2019-02-17T02:49:11.897Z,61.90
2019-02-17T02:51:42.349Z,64.20
2019-02-17T02:54:12.915Z,63.30
2019-02-17T02:56:43.606Z,62.63
2019-02-17T02:59:14.287Z,64.60
2019-02-17T03:01:44.954Z,59.53
2019-02-17T03:04:15.547Z,62.73
2019-02-17T03:06:54.015Z,64.57
2019-02-17T03:09:24.409Z,62.27
2019-02-17T03:11:55.152Z,61.80
2019-02-17T03:14:25.367Z,63.10
2019-02-17T03:16:56.388Z,68.23
2019-02-17T03:19:27.012Z,59.97
2019-02-17T03:21:58.037Z,67.60
2019-02-17T03:24:28.692Z,61.87
2019-02-17T03:26:59.702Z,66.07
2019-02-17T03:29:30.349Z,64.47
2019-02-17T03:32:01.136Z,66.10
2019-02-17T03:34:31.874Z,68.47
2019-02-17T03:37:02.661Z,66.53
2019-02-17T03:39:33.434Z,68.87
2019-02-17T03:42:04.128Z,71.60
2019-02-17T03:44:35.144Z,69.10
2019-02-17T03:47:06.187Z,65.33
2019-02-17T03:49:36.832Z,73.30
2019-02-17T03:52:07.530Z,70.20
2019-02-17T03:54:38.202Z,72.17
2019-02-17T03:57:08.496Z,70.63
2019-02-17T03:59:38.960Z,71.37
2019-02-17T04:02:09.540Z,74.50
2019-02-17T04:04:40.712Z,70.77
2019-02-17T04:07:11.306Z,78.50
2019-02-17T04:09:41.893Z,71.30
2019-02-17T04:12:12.489Z,73.00
2019-02-17T04:14:43.058Z,73.13
2019-02-17T04:17:14.178Z,67.37
2019-02-17T04:19:45.050Z,75.73
2019-02-17T04:22:15.727Z,67.70
2019-02-17T04:24:46.294Z,67.00
2019-02-17T04:27:17.341Z,75.70
2019-02-17T04:29:47.911Z,71.87
2019-02-17T04:32:18.602Z,66.20
2019-02-17T04:34:49.747Z,73.10
2019-02-17T04:37:20.168Z,71.40
2019-02-17T04:39:50.736Z,71.90
2019-02-17T04:42:21.220Z,67.77
2019-02-17T04:44:52.065Z,67.23
2019-02-17T04:47:22.651Z,66.43
2019-02-17T04:49:53.237Z,68.03
2019-02-17T04:52:23.852Z,68.17
2019-02-17T04:54:54.868Z,68.73
2019-02-17T04:57:25.466Z,65.60
2019-02-17T04:59:55.790Z,67.67
2019-02-17T05:02:26.219Z,70.70
2019-02-17T05:04:56.695Z,68.63
2019-02-17T05:07:27.386Z,62.73
2019-02-17T05:09:57.758Z,65.77
2019-02-17T05:12:28.301Z,66.43
2019-02-17T05:14:59.314Z,64.93
2019-02-17T05:17:30.204Z,61.70
2019-02-17T05:20:00.800Z,70.53
2019-02-17T05:22:31.470Z,68.77
2019-02-17T05:25:01.997Z,62.80
2019-02-17T05:27:32.980Z,67.07
2019-02-17T05:30:03.875Z,62.53
2019-02-17T05:32:34.760Z,67.67
2019-02-17T05:35:05.666Z,61.67
2019-02-17T05:37:36.442Z,64.33
2019-02-17T05:40:07.408Z,61.87
2019-02-17T05:42:37.961Z,61.20
2019-02-17T05:45:08.587Z,65.27
2019-02-17T05:47:38.971Z,60.43
2019-02-17T05:50:10.097Z,65.70
2019-02-17T05:52:41.132Z,62.07
2019-02-17T05:55:11.690Z,64.63
2019-02-17T05:57:42.465Z,60.37
2019-02-17T06:00:14.335Z,60.33
2019-02-17T06:02:44.957Z,58.37
2019-02-17T06:05:15.957Z,63.50
2019-02-17T06:07:46.654Z,63.70
2019-02-17T06:10:17.331Z,60.40
2019-02-17T06:12:48.231Z,60.90
2019-02-17T06:15:19.373Z,62.87
2019-02-17T06:17:49.979Z,62.17
2019-02-17T06:20:20.760Z,62.27
2019-02-17T06:22:51.574Z,62.53
2019-02-17T06:25:22.087Z,67.57
2019-02-17T06:27:52.855Z,65.13
2019-02-17T06:30:23.661Z,67.13
2019-02-17T06:32:54.419Z,62.60
2019-02-17T06:35:25.347Z,60.87
2019-02-17T06:37:56.227Z,67.63
2019-02-17T06:40:26.876Z,63.37
2019-02-17T06:42:57.494Z,64.20
2019-02-17T06:45:28.248Z,58.70
2019-02-17T06:47:59.775Z,63.13
2019-02-17T06:50:32.800Z,61.73
2019-02-17T06:53:03.175Z,64.20
2019-02-17T06:55:35.458Z,59.87
2019-02-17T06:58:06.210Z,65.40
2019-02-17T07:00:41.225Z,66.93
2019-02-17T07:03:14.218Z,65.70
2019-02-17T07:05:45.882Z,63.80
2019-02-17T07:08:16.598Z,60.07
2019-02-17T07:10:47.212Z,57.13
2019-02-17T07:13:17.783Z,58.10
2019-02-17T07:15:48.368Z,55.50
2019-02-17T07:18:18.961Z,56.33
2019-02-17T07:20:49.504Z,53.23
2019-02-17T07:23:20.282Z,60.30
2019-02-17T07:25:51.383Z,54.00
2019-02-17T07:28:22.527Z,56.50
2019-02-17T07:30:53.570Z,55.03
2019-02-17T07:33:24.231Z,58.70
2019-02-17T07:35:55.240Z,55.60
2019-02-17T07:38:25.800Z,65.40
2019-02-17T07:40:56.774Z,58.27
2019-02-17T07:43:27.405Z,65.10
2019-02-17T07:45:58.103Z,59.77
2019-02-17T07:48:28.509Z,60.27
2019-02-17T07:50:59.439Z,57.77
2019-02-17T07:53:30.196Z,61.53
2019-02-17T07:56:00.990Z,60.80
2019-02-17T07:58:31.721Z,57.97
2019-02-17T08:01:02.843Z,58.10
2019-02-17T08:03:33.736Z,61.33
2019-02-17T08:06:04.532Z,62.33
2019-02-17T08:08:38.495Z,56.23
2019-02-17T08:11:09.711Z,56.17
2019-02-17T08:13:40.275Z,60.50
2019-02-17T08:16:10.738Z,58.90
2019-02-17T08:18:41.232Z,61.77
2019-02-17T08:21:12.239Z,62.90
2019-02-17T08:23:43.051Z,59.93
2019-02-17T08:26:14.116Z,59.90
2019-02-17T08:28:45.030Z,61.93
2019-02-17T08:31:15.608Z,65.70
2019-02-17T08:33:46.089Z,67.00
2019-02-17T08:36:16.509Z,61.57
2019-02-17T08:38:47.007Z,62.40
2019-02-17T08:41:18.206Z,62.60
2019-02-17T08:43:48.916Z,61.87
2019-02-17T08:46:20.086Z,65.33
2019-02-17T08:48:50.634Z,59.20
2019-02-17T08:51:21.072Z,59.43
2019-02-17T08:53:52.092Z,63.17
2019-02-17T08:56:22.748Z,60.07
2019-02-17T08:58:53.623Z,66.80
2019-02-17T09:01:24.274Z,63.27
2019-02-17T09:03:54.869Z,62.97
2019-02-17T09:06:25.442Z,59.43
2019-02-17T09:08:56.327Z,63.60
2019-02-17T09:11:27.099Z,62.47
2019-02-17T09:13:57.697Z,65.83
2019-02-17T09:16:29.113Z,67.90
2019-02-17T09:19:00.151Z,67.80
2019-02-17T09:21:30.984Z,65.53
2019-02-17T09:24:01.638Z,58.10
2019-02-17T09:26:32.331Z,62.43
2019-02-17T09:29:03.209Z,60.27
2019-02-17T09:31:33.887Z,64.20
2019-02-17T09:34:04.464Z,63.27
2019-02-17T09:36:35.177Z,64.23
2019-02-17T09:39:08.249Z,61.20
2019-02-17T09:41:39.210Z,58.60
2019-02-17T09:44:09.875Z,56.37
2019-02-17T09:46:40.393Z,54.47
2019-02-17T09:49:10.878Z,59.70
2019-02-17T09:51:41.838Z,217.17
2019-02-17T09:54:12.630Z,523.27
2019-02-17T09:56:43.478Z,90.70
2019-02-17T09:59:14.340Z,60.80
2019-02-17T10:01:45.020Z,59.67
2019-02-17T10:04:15.588Z,56.13
2019-02-17T10:06:46.175Z,52.47
2019-02-17T10:09:16.745Z,52.20
2019-02-17T10:11:47.851Z,51.30
2019-02-17T10:14:18.629Z,49.37
2019-02-17T10:16:49.205Z,52.00
2019-02-17T10:19:19.881Z,47.97
2019-02-17T10:21:50.461Z,49.70
2019-02-17T10:24:21.107Z,47.60
2019-02-17T10:26:51.894Z,46.57
2019-02-17T10:29:22.939Z,47.63
2019-02-17T10:31:53.505Z,49.17
2019-02-17T10:34:24.201Z,47.97
2019-02-17T10:36:55.247Z,47.30
2019-02-17T10:39:25.856Z,45.83
2019-02-17T10:41:56.288Z,45.13
2019-02-17T10:44:29.359Z,45.17
2019-02-17T10:47:00.040Z,44.30
2019-02-17T10:49:30.878Z,41.37
2019-02-17T10:52:01.424Z,42.70
2019-02-17T10:54:32.283Z,44.47
2019-02-17T10:57:03.017Z,59.93
2019-02-17T10:59:34.128Z,70.97
2019-02-17T11:02:04.685Z,52.67
2019-02-17T11:04:35.589Z,42.43
2019-02-17T11:07:06.299Z,40.60
2019-02-17T11:09:37.225Z,38.50
2019-02-17T11:12:08.185Z,36.70
2019-02-17T11:14:39.145Z,39.17
2019-02-17T11:17:09.899Z,35.63
2019-02-17T11:19:41.080Z,41.60
2019-02-17T11:22:11.688Z,42.03
2019-02-17T11:24:42.593Z,45.53
2019-02-17T11:27:13.176Z,68.83
2019-02-17T11:29:43.660Z,58.83
2019-02-17T11:32:14.379Z,56.80
2019-02-17T11:34:45.069Z,51.10
2019-02-17T11:37:15.754Z,49.50
2019-02-17T11:39:46.634Z,51.23
2019-02-17T11:42:17.176Z,52.10
2019-02-17T11:44:47.758Z,55.00
2019-02-17T11:47:18.268Z,57.53
2019-02-17T11:49:48.949Z,57.23
2019-02-17T11:52:19.494Z,59.83
2019-02-17T11:54:50.371Z,60.10
2019-02-17T11:57:21.103Z,58.70
2019-02-17T11:59:51.813Z,55.50
2019-02-17T12:02:25.112Z,59.03
2019-02-17T12:04:54.821Z,58.73
2019-02-17T12:07:25.333Z,57.37
2019-02-17T12:09:56.856Z,52.63
2019-02-17T12:12:27.558Z,57.80
2019-02-17T12:14:58.572Z,58.30
2019-02-17T12:17:29.284Z,57.60
2019-02-17T12:20:01.024Z,63.57
2019-02-17T12:22:33.490Z,60.37
2019-02-17T12:25:04.532Z,60.43
2019-02-17T12:27:42.740Z,62.43
2019-02-17T12:30:13.336Z,58.97
2019-02-17T12:32:44.354Z,62.33
2019-02-17T12:35:15.706Z,56.37
2019-02-17T12:37:47.454Z,63.83
2019-02-17T12:40:18.337Z,61.47
2019-02-17T12:42:51.030Z,66.80
2019-02-17T12:45:21.223Z,65.47
2019-02-17T12:47:58.269Z,69.67
2019-02-17T12:50:24.591Z,65.50
2019-02-17T12:52:55.659Z,69.67
2019-02-17T12:55:26.362Z,69.03
2019-02-17T12:57:57.113Z,71.33
2019-02-17T13:00:28.259Z,70.70
2019-02-17T13:02:58.812Z,71.43
2019-02-17T13:05:29.390Z,68.70
2019-02-17T13:08:00.470Z,71.33
2019-02-17T13:10:31.087Z,72.20
2019-02-17T13:13:04.646Z,70.57
2019-02-17T13:15:34.820Z,76.13
2019-02-17T13:18:05.809Z,72.43
2019-02-17T13:20:36.508Z,72.37
2019-02-17T13:23:07.357Z,71.40
2019-02-17T13:25:38.458Z,72.30
2019-02-17T13:28:09.610Z,71.20
2019-02-17T13:30:40.283Z,72.00
2019-02-17T13:33:11.109Z,71.00
2019-02-17T13:35:41.773Z,71.67
2019-02-17T13:38:12.854Z,97.23
2019-02-17T13:40:43.575Z,77.33
2019-02-17T13:43:14.459Z,113.47
2019-02-17T13:45:45.464Z,125.53
2019-02-17T13:48:16.233Z,135.93
2019-02-17T13:50:47.028Z,66.20
2019-02-17T13:53:17.495Z,69.03
2019-02-17T13:55:48.227Z,185.13
2019-02-17T13:58:18.794Z,249.50
2019-02-17T14:00:49.399Z,193.67
2019-02-17T14:03:21.485Z,178.07
2019-02-17T14:05:52.193Z,151.63
2019-02-17T14:08:22.762Z,121.57
2019-02-17T14:10:53.669Z,123.87
2019-02-17T14:13:24.410Z,95.63
2019-02-17T14:15:54.897Z,108.40
2019-02-17T14:18:25.389Z,103.23
2019-02-17T14:20:56.549Z,96.40
2019-02-17T14:23:27.390Z,83.60
2019-02-17T14:25:58.436Z,82.50
2019-02-17T14:28:29.296Z,75.50
2019-02-17T14:31:00.364Z,72.90
2019-02-17T14:33:30.973Z,72.87
2019-02-17T14:36:01.464Z,74.47
2019-02-17T14:38:32.039Z,67.83
2019-02-17T14:41:03.035Z,71.80
2019-02-17T14:43:33.813Z,65.77
2019-02-17T14:46:04.720Z,61.23
2019-02-17T14:48:35.368Z,65.93
2019-02-17T14:51:06.482Z,59.87
2019-02-17T14:53:37.087Z,59.10
2019-02-17T14:56:07.621Z,57.70
2019-02-17T14:58:38.581Z,59.60
2019-02-17T15:01:09.274Z,53.10
2019-02-17T15:03:40.455Z,56.57
2019-02-17T15:06:12.155Z,57.97
2019-02-17T15:08:43.610Z,54.20
2019-02-17T15:11:14.554Z,56.10
2019-02-17T15:13:45.532Z,54.37
2019-02-17T15:16:16.323Z,52.53
2019-02-17T15:18:47.447Z,53.37
2019-02-17T15:21:18.129Z,48.46
2019-02-17T15:23:49.228Z,49.33
2019-02-17T15:26:20.547Z,49.07
2019-02-17T15:28:51.637Z,50.93
2019-02-17T15:31:22.322Z,51.07
2019-02-17T15:33:52.981Z,51.70
2019-02-17T15:36:23.879Z,50.40
2019-02-17T15:38:54.568Z,47.30
2019-02-17T15:41:25.327Z,48.50
2019-02-17T15:43:55.998Z,44.97
2019-02-17T15:46:27.038Z,45.73
2019-02-17T15:48:57.696Z,43.30
2019-02-17T15:51:28.808Z,48.07
2019-02-17T15:53:59.465Z,47.47
2019-02-17T15:56:30.146Z,48.17
2019-02-17T15:59:00.668Z,45.40
2019-02-17T16:01:31.392Z,46.90
2019-02-17T16:04:01.894Z,46.33
2019-02-17T16:06:32.368Z,43.70
2019-02-17T16:09:03.845Z,46.40
2019-02-17T16:11:34.537Z,44.60
2019-02-17T16:14:05.071Z,46.07
2019-02-17T16:16:35.653Z,42.67
2019-02-17T16:19:06.236Z,46.53
2019-02-17T16:21:37.299Z,44.00
2019-02-17T16:24:07.900Z,47.23
2019-02-17T16:26:38.462Z,46.10
2019-02-17T16:29:09.110Z,49.20
2019-02-17T16:31:39.771Z,43.73
2019-02-17T16:34:10.449Z,47.17
2019-02-17T16:36:41.080Z,45.10
2019-02-17T16:39:13.015Z,45.77
2019-02-17T16:41:44.185Z,46.40
2019-02-17T16:44:14.866Z,45.63
2019-02-17T16:46:45.860Z,43.77
2019-02-17T16:49:16.337Z,50.27
2019-02-17T16:51:47.667Z,47.07
2019-02-17T16:54:18.446Z,47.27
2019-02-17T16:56:49.042Z,48.13
2019-02-17T16:59:19.707Z,47.80
2019-02-17T17:01:50.775Z,46.93
2019-02-17T17:04:21.378Z,48.23
2019-02-17T17:06:52.558Z,48.73
2019-02-17T17:09:23.383Z,47.70
2019-02-17T17:11:54.046Z,48.63
2019-02-17T17:14:24.576Z,51.40
2019-02-17T17:16:55.284Z,46.00
2019-02-17T17:19:26.425Z,47.30
2019-02-17T17:21:57.222Z,47.10
2019-02-17T17:24:28.297Z,49.37
2019-02-17T17:26:58.937Z,50.67
2019-02-17T17:29:29.995Z,47.07
2019-02-17T17:32:00.753Z,51.40
2019-02-17T17:34:31.548Z,51.23
2019-02-17T17:37:02.225Z,52.57
2019-02-17T17:39:32.995Z,52.83
2019-02-17T17:42:03.672Z,52.37
2019-02-17T17:44:34.808Z,52.97
2019-02-17T17:47:05.925Z,53.77
2019-02-17T17:49:36.456Z,53.90
2019-02-17T17:52:07.725Z,55.37
2019-02-17T17:54:38.841Z,53.90
2019-02-17T17:57:09.606Z,57.60
2019-02-17T17:59:40.263Z,56.93
2019-02-17T18:02:10.832Z,56.77
2019-02-17T18:04:41.777Z,59.17
2019-02-17T18:07:12.561Z,55.63
2019-02-17T18:09:43.100Z,56.10
2019-02-17T18:12:13.850Z,55.83
2019-02-17T18:14:44.675Z,56.13
2019-02-17T18:17:16.565Z,56.93
2019-02-17T18:19:47.351Z,53.80
2019-02-17T18:22:18.221Z,57.43
2019-02-17T18:24:49.290Z,58.77
2019-02-17T18:27:19.858Z,58.60
2019-02-17T18:29:50.447Z,57.47
2019-02-17T18:32:21.603Z,63.40
2019-02-17T18:34:52.935Z,58.87
2019-02-17T18:37:23.992Z,56.17
2019-02-17T18:39:54.795Z,58.50
2019-02-17T18:42:25.379Z,59.20
2019-02-17T18:44:56.162Z,59.37
2019-02-17T18:47:26.940Z,59.40
2019-02-17T18:49:57.709Z,60.10
2019-02-17T18:52:28.361Z,59.57
2019-02-17T18:55:00.573Z,55.50
2019-02-17T18:57:31.145Z,57.17
2019-02-17T19:00:01.591Z,58.10
2019-02-17T19:02:32.750Z,60.67
2019-02-17T19:05:03.768Z,55.93
2019-02-17T19:07:34.300Z,54.40
2019-02-17T19:10:10.384Z,56.93
2019-02-17T19:12:40.761Z,61.40
2019-02-17T19:15:15.899Z,57.70
2019-02-17T19:17:46.655Z,58.57
2019-02-17T19:20:28.790Z,56.87
2019-02-17T19:22:59.528Z,57.43
2019-02-17T19:25:30.012Z,59.07
2019-02-17T19:28:00.811Z,60.57
2019-02-17T19:30:31.506Z,53.83
2019-02-17T19:33:02.570Z,56.57
2019-02-17T19:35:41.413Z,57.13
2019-02-17T19:38:05.835Z,53.77
2019-02-17T19:40:36.791Z,59.27
2019-02-17T19:43:07.601Z,57.17
2019-02-17T19:45:38.871Z,51.93
2019-02-17T19:48:09.595Z,57.47
2019-02-17T19:50:40.587Z,55.90
2019-02-17T19:53:11.326Z,55.10
2019-02-17T19:55:42.104Z,55.40
2019-02-17T19:58:13.250Z,54.07
2019-02-17T20:00:43.913Z,54.30
2019-02-17T20:03:16.520Z,55.63
2019-02-17T20:05:57.674Z,54.50
2019-02-17T20:08:28.597Z,54.10
2019-02-17T20:10:59.353Z,50.67
2019-02-17T20:13:30.190Z,51.23
2019-02-17T20:16:00.868Z,52.10
2019-02-17T20:18:31.855Z,51.20
2019-02-17T20:21:02.864Z,50.60
2019-02-17T20:23:33.754Z,52.10
2019-02-17T20:26:04.800Z,46.60
2019-02-17T20:28:43.094Z,48.50
2019-02-17T20:31:09.511Z,51.00
2019-02-17T20:33:40.263Z,49.37
2019-02-17T20:36:11.387Z,49.97
2019-02-17T20:38:42.225Z,46.67
2019-02-17T20:41:12.987Z,49.40
2019-02-17T20:43:44.441Z,49.10
2019-02-17T20:46:15.171Z,47.77
2019-02-17T20:48:45.886Z,44.80
2019-02-17T20:51:16.771Z,45.57
2019-02-17T20:53:47.440Z,47.00
2019-02-17T20:56:18.140Z,48.33
2019-02-17T20:58:48.552Z,45.00
2019-02-17T21:01:18.977Z,47.07
2019-02-17T21:03:49.453Z,48.40
2019-02-17T21:06:20.284Z,45.50
2019-02-17T21:08:50.727Z,47.87
2019-02-17T21:11:21.410Z,44.70
2019-02-17T21:13:51.924Z,44.20
2019-02-17T21:16:22.505Z,44.93
2019-02-17T21:18:53.002Z,45.47
2019-02-17T21:21:23.834Z,44.87
2019-02-17T21:23:54.995Z,43.97
2019-02-17T21:26:26.372Z,43.23
2019-02-17T21:28:57.307Z,41.17
2019-02-17T21:31:28.314Z,40.77
2019-02-17T21:33:59.055Z,40.00
2019-02-17T21:36:29.749Z,40.27
2019-02-17T21:39:00.653Z,40.90
2019-02-17T21:41:31.656Z,42.00
2019-02-17T21:44:02.425Z,40.10
2019-02-17T21:46:33.494Z,40.93
2019-02-17T21:49:04.290Z,39.23
2019-02-17T21:51:34.976Z,38.70
2019-02-17T21:54:05.998Z,41.10
2019-02-17T21:56:36.976Z,39.20
2019-02-17T21:59:07.926Z,40.87
2019-02-17T22:01:38.714Z,41.03
2019-02-17T22:04:09.400Z,40.13
2019-02-17T22:06:40.003Z,39.60
2019-02-17T22:09:12.319Z,39.43
2019-02-17T22:11:43.013Z,36.80
2019-02-17T22:14:14.191Z,36.90
2019-02-17T22:16:44.766Z,38.77
2019-02-17T22:19:15.220Z,38.20
2019-02-17T22:21:45.938Z,38.13
2019-02-17T22:24:16.843Z,37.17
2019-02-17T22:26:47.557Z,35.70
2019-02-17T22:29:21.302Z,36.23
2019-02-17T22:31:52.275Z,38.10
2019-02-17T22:34:23.080Z,34.20
2019-02-17T22:36:53.764Z,35.60
2019-02-17T22:39:24.444Z,35.43
2019-02-17T22:41:55.042Z,34.80
2019-02-17T22:44:25.927Z,36.57
2019-02-17T22:46:56.702Z,37.43
2019-02-17T22:49:27.233Z,35.67
2019-02-17T22:51:57.990Z,33.30
2019-02-17T22:54:28.694Z,34.70
2019-02-17T22:56:59.290Z,36.43
2019-02-17T22:59:29.770Z,34.77
2019-02-17T23:02:00.742Z,35.83
2019-02-17T23:04:31.674Z,32.43
2019-02-17T23:07:02.258Z,34.57
2019-02-17T23:09:33.173Z,33.90
2019-02-17T23:12:04.129Z,33.93
2019-02-17T23:14:35.155Z,35.90
2019-02-17T23:17:05.969Z,32.20
2019-02-17T23:19:36.692Z,34.70
2019-02-17T23:22:07.487Z,32.87
2019-02-17T23:24:38.069Z,32.70
2019-02-17T23:27:08.837Z,32.50
2019-02-17T23:29:39.960Z,34.27
2019-02-17T23:32:10.875Z,32.80
2019-02-17T23:34:41.503Z,33.20
2019-02-17T23:37:12.197Z,33.10
2019-02-17T23:39:42.756Z,33.23
2019-02-17T23:42:13.332Z,32.80
2019-02-17T23:44:43.866Z,33.43
2019-02-17T23:47:14.755Z,33.37
2019-02-17T23:49:45.332Z,34.23
2019-02-17T23:52:16.120Z,32.97
2019-02-17T23:54:46.991Z,33.97
2019-02-17T23:57:17.781Z,33.37
2019-02-17T23:59:48.370Z,32.60
